createdAt,value
2022-12-22T00:00:57.091Z,8.74
2022-12-22T00:01:57.239Z,8.79
2022-12-22T00:02:57.290Z,8.79
2022-12-22T00:03:57.274Z,8.81
2022-12-22T00:04:57.133Z,8.74
2022-12-22T00:05:57.111Z,8.76
2022-12-22T00:06:57.119Z,8.78
2022-12-22T00:07:57.113Z,8.71
2022-12-22T00:09:03.560Z,8.64
2022-12-22T00:09:57.128Z,8.66
2022-12-22T00:10:57.129Z,8.67
2022-12-22T00:11:57.132Z,8.69
2022-12-22T00:12:57.136Z,8.61
2022-12-22T00:13:57.135Z,8.61
2022-12-22T00:14:57.138Z,8.64
2022-12-22T00:15:57.143Z,8.63
2022-12-22T00:16:57.288Z,8.58
2022-12-22T00:17:57.149Z,8.58
2022-12-22T00:18:57.158Z,8.61
2022-12-22T00:19:57.162Z,8.60
2022-12-22T00:20:57.181Z,8.64
2022-12-22T00:21:57.161Z,8.63
2022-12-22T00:22:57.167Z,8.64
2022-12-22T00:23:57.197Z,8.61
2022-12-22T00:24:57.189Z,8.58
2022-12-22T00:25:57.183Z,8.64
2022-12-22T00:26:57.179Z,8.60
2022-12-22T00:27:57.185Z,8.56
2022-12-22T00:28:57.188Z,8.60
2022-12-22T00:29:57.198Z,8.61
2022-12-22T00:30:57.293Z,8.58
2022-12-22T00:31:57.211Z,8.55
2022-12-22T00:32:57.212Z,8.64
2022-12-22T00:33:57.202Z,8.60
2022-12-22T00:34:57.206Z,8.64
2022-12-22T00:35:57.213Z,8.61
2022-12-22T00:36:57.234Z,8.58
2022-12-22T00:37:57.217Z,8.66
2022-12-22T00:38:57.221Z,8.67
2022-12-22T00:39:57.229Z,8.76
2022-12-22T00:40:57.227Z,8.76
2022-12-22T00:41:57.241Z,8.78
2022-12-22T00:42:57.233Z,8.78
2022-12-22T00:43:57.263Z,8.73
2022-12-22T00:44:57.236Z,8.79
2022-12-22T00:45:57.337Z,8.78
2022-12-22T00:46:57.254Z,8.78
2022-12-22T00:47:57.250Z,8.78
2022-12-22T00:48:57.252Z,8.79
2022-12-22T00:49:57.263Z,8.71
2022-12-22T00:50:57.261Z,8.76
2022-12-22T00:51:57.270Z,8.76
2022-12-22T00:52:57.298Z,8.73
2022-12-22T00:53:57.275Z,8.78
2022-12-22T00:54:57.282Z,8.71
2022-12-22T00:55:57.284Z,8.71
2022-12-22T00:56:57.287Z,8.63
2022-12-22T00:57:57.284Z,8.67
2022-12-22T00:58:57.286Z,8.71
2022-12-22T00:59:57.292Z,8.64
2022-12-22T01:00:57.312Z,8.63
2022-12-22T01:01:57.428Z,8.66
2022-12-22T01:02:57.476Z,8.70
2022-12-22T01:03:57.313Z,8.70
2022-12-22T01:04:57.307Z,8.66
2022-12-22T01:05:57.318Z,8.67
2022-12-22T01:06:57.321Z,8.61
2022-12-22T01:07:57.328Z,8.63
2022-12-22T01:08:57.349Z,8.61
2022-12-22T01:09:57.331Z,8.66
2022-12-22T01:10:57.339Z,8.64
2022-12-22T01:11:57.331Z,8.66
2022-12-22T01:12:57.333Z,8.70
2022-12-22T01:13:57.344Z,8.64
2022-12-22T01:14:57.348Z,8.69
2022-12-22T01:15:57.420Z,8.66
2022-12-22T01:16:57.352Z,8.67
2022-12-22T01:17:57.357Z,8.70
2022-12-22T01:18:57.355Z,8.78
2022-12-22T01:19:57.369Z,8.70
2022-12-22T01:20:57.359Z,8.71
2022-12-22T01:21:57.366Z,8.73
2022-12-22T01:22:57.379Z,8.76
2022-12-22T01:23:57.398Z,8.74
2022-12-22T01:24:57.397Z,8.69
2022-12-22T01:25:57.380Z,8.78
2022-12-22T01:26:57.393Z,8.63
2022-12-22T01:27:57.397Z,8.71
2022-12-22T01:28:57.387Z,8.67
2022-12-22T01:29:57.392Z,8.63
2022-12-22T01:30:57.431Z,8.67
2022-12-22T01:31:57.406Z,8.61
2022-12-22T01:32:57.416Z,8.61
2022-12-22T01:33:57.413Z,8.63
2022-12-22T01:34:57.414Z,8.63
2022-12-22T01:35:57.413Z,8.58
2022-12-22T01:36:57.428Z,8.53
2022-12-22T01:37:57.434Z,8.53
2022-12-22T01:38:57.443Z,8.64
2022-12-22T01:39:57.433Z,8.60
2022-12-22T01:40:57.466Z,8.69
2022-12-22T01:41:57.432Z,8.60
2022-12-22T01:42:57.441Z,8.71
2022-12-22T01:43:57.449Z,8.69
2022-12-22T01:44:57.447Z,8.67
2022-12-22T01:45:57.493Z,8.70
2022-12-22T01:46:57.452Z,8.74
2022-12-22T01:47:57.455Z,8.69
2022-12-22T01:48:57.463Z,8.76
2022-12-22T01:49:57.458Z,8.73
2022-12-22T01:50:57.475Z,8.76
2022-12-22T01:51:57.474Z,8.73
2022-12-22T01:52:57.473Z,8.84
2022-12-22T01:53:57.476Z,8.76
2022-12-22T01:54:57.485Z,8.84
2022-12-22T01:55:57.490Z,8.73
2022-12-22T01:56:57.519Z,8.82
2022-12-22T01:57:57.492Z,8.88
2022-12-22T01:58:57.494Z,8.81
2022-12-22T01:59:57.601Z,8.88
2022-12-22T02:00:57.500Z,8.88
2022-12-22T02:01:57.643Z,8.85
2022-12-22T02:02:57.606Z,8.87
2022-12-22T02:03:57.604Z,8.91
2022-12-22T02:04:57.519Z,8.89
2022-12-22T02:05:57.527Z,8.88
2022-12-22T02:07:00.206Z,8.89
2022-12-22T02:07:57.530Z,8.87
2022-12-22T02:08:57.530Z,8.84
2022-12-22T02:09:57.536Z,8.88
2022-12-22T02:10:57.546Z,8.87
2022-12-22T02:11:57.544Z,8.91
2022-12-22T02:12:57.587Z,8.88
2022-12-22T02:13:57.560Z,8.91
2022-12-22T02:14:57.553Z,8.85
2022-12-22T02:15:57.631Z,8.85
2022-12-22T02:16:57.569Z,8.78
2022-12-22T02:17:57.575Z,8.76
2022-12-22T02:18:57.588Z,8.73
2022-12-22T02:19:57.580Z,8.79
2022-12-22T02:20:57.583Z,8.78
2022-12-22T02:21:57.592Z,8.78
2022-12-22T02:22:57.597Z,8.73
2022-12-22T02:23:57.599Z,8.82
2022-12-22T02:24:57.592Z,8.84
2022-12-22T02:25:57.603Z,8.89
2022-12-22T02:26:57.600Z,8.87
2022-12-22T02:27:57.617Z,8.91
2022-12-22T02:28:57.631Z,8.89
2022-12-22T02:29:57.619Z,8.88
2022-12-22T02:30:57.662Z,8.88
2022-12-22T02:31:57.617Z,8.89
2022-12-22T02:33:01.079Z,8.85
2022-12-22T02:33:57.638Z,8.85
2022-12-22T02:34:57.634Z,8.87
2022-12-22T02:35:57.642Z,8.89
2022-12-22T02:36:57.641Z,8.88
2022-12-22T02:37:57.655Z,8.92
2022-12-22T02:38:57.651Z,8.89
2022-12-22T02:39:57.669Z,8.89
2022-12-22T02:40:57.661Z,8.85
2022-12-22T02:41:57.663Z,9.00
2022-12-22T02:42:57.667Z,8.89
2022-12-22T02:43:57.664Z,9.11
2022-12-22T02:44:57.694Z,9.06
2022-12-22T02:45:57.681Z,9.16
2022-12-22T02:46:57.782Z,9.13
2022-12-22T02:47:57.681Z,9.04
2022-12-22T02:48:57.693Z,9.11
2022-12-22T02:49:57.692Z,9.11
2022-12-22T02:50:57.697Z,9.06
2022-12-22T02:51:57.696Z,8.97
2022-12-22T02:52:57.704Z,9.04
2022-12-22T02:53:57.710Z,9.04
2022-12-22T02:54:57.707Z,8.97
2022-12-22T02:55:57.718Z,9.06
2022-12-22T02:56:57.726Z,9.08
2022-12-22T02:57:57.726Z,9.08
2022-12-22T02:58:57.732Z,8.99
2022-12-22T02:59:57.735Z,8.91
2022-12-22T03:00:57.770Z,9.04
2022-12-22T03:01:57.969Z,9.04
2022-12-22T03:02:57.944Z,9.03
2022-12-22T03:03:57.869Z,9.11
2022-12-22T03:04:57.752Z,9.08
2022-12-22T03:05:57.763Z,9.10
2022-12-22T03:06:57.756Z,9.04
2022-12-22T03:08:00.691Z,9.10
2022-12-22T03:08:57.763Z,8.97
2022-12-22T03:09:57.768Z,9.08
2022-12-22T03:10:57.776Z,9.03
2022-12-22T03:11:57.785Z,8.89
2022-12-22T03:12:57.786Z,9.04
2022-12-22T03:13:57.789Z,9.04
2022-12-22T03:14:57.790Z,9.02
2022-12-22T03:15:57.869Z,9.03
2022-12-22T03:16:57.832Z,8.92
2022-12-22T03:17:57.808Z,9.03
2022-12-22T03:18:57.820Z,9.00
2022-12-22T03:19:57.817Z,9.04
2022-12-22T03:20:57.817Z,9.00
2022-12-22T03:21:57.826Z,9.02
2022-12-22T03:22:57.826Z,9.02
2022-12-22T03:23:57.831Z,8.95
2022-12-22T03:24:57.843Z,8.89
2022-12-22T03:25:57.850Z,8.89
2022-12-22T03:26:57.840Z,8.85
2022-12-22T03:27:57.845Z,8.87
2022-12-22T03:28:57.850Z,8.91
2022-12-22T03:29:57.845Z,8.84
2022-12-22T03:30:57.986Z,8.88
2022-12-22T03:31:58.003Z,8.89
2022-12-22T03:32:57.901Z,8.87
2022-12-22T03:33:57.871Z,8.91
2022-12-22T03:34:57.868Z,8.88
2022-12-22T03:35:57.881Z,8.88
2022-12-22T03:36:57.881Z,8.85
2022-12-22T03:37:57.887Z,8.89
2022-12-22T03:38:57.890Z,8.92
2022-12-22T03:39:57.897Z,9.00
2022-12-22T03:40:57.897Z,8.97
2022-12-22T03:41:57.896Z,9.03
2022-12-22T03:42:57.896Z,9.00
2022-12-22T03:43:57.910Z,9.03
2022-12-22T03:44:57.916Z,9.06
2022-12-22T03:45:57.909Z,8.92
2022-12-22T03:46:58.004Z,9.06
2022-12-22T03:47:57.929Z,9.02
2022-12-22T03:48:57.944Z,9.08
2022-12-22T03:49:57.935Z,9.04
2022-12-22T03:50:57.929Z,8.95
2022-12-22T03:51:57.934Z,9.04
2022-12-22T03:52:57.940Z,8.97
2022-12-22T03:53:57.947Z,8.94
2022-12-22T03:54:57.964Z,9.04
2022-12-22T03:56:01.288Z,9.08
2022-12-22T03:56:57.956Z,9.11
2022-12-22T03:57:57.965Z,9.10
2022-12-22T03:58:57.962Z,9.18
2022-12-22T03:59:57.986Z,8.97
2022-12-22T04:00:58.077Z,8.95
2022-12-22T04:01:58.152Z,9.00
2022-12-22T04:02:58.252Z,8.97
2022-12-22T04:03:57.988Z,9.10
2022-12-22T04:04:58.013Z,9.06
2022-12-22T04:05:57.997Z,9.11
2022-12-22T04:06:58.040Z,8.94
2022-12-22T04:07:58.006Z,9.06
2022-12-22T04:08:58.004Z,9.03
2022-12-22T04:09:58.011Z,9.04
2022-12-22T04:10:58.029Z,9.08
2022-12-22T04:11:58.031Z,9.13
2022-12-22T04:12:58.026Z,8.99
2022-12-22T04:13:58.037Z,9.06
2022-12-22T04:14:58.030Z,8.95
2022-12-22T04:15:58.055Z,9.02
2022-12-22T04:16:58.110Z,9.11
2022-12-22T04:17:58.043Z,9.13
2022-12-22T04:18:58.049Z,8.99
2022-12-22T04:19:58.052Z,8.92
2022-12-22T04:20:58.088Z,9.10
2022-12-22T04:21:58.064Z,9.14
2022-12-22T04:22:58.059Z,9.04
2022-12-22T04:23:58.079Z,9.04
2022-12-22T04:24:58.087Z,8.94
2022-12-22T04:25:58.076Z,9.02
2022-12-22T04:26:58.095Z,8.95
2022-12-22T04:27:58.078Z,8.97
2022-12-22T04:28:58.147Z,8.94
2022-12-22T04:29:58.094Z,8.97
2022-12-22T04:30:58.107Z,8.92
2022-12-22T04:31:58.157Z,8.89
2022-12-22T04:32:58.097Z,8.92
2022-12-22T04:33:58.116Z,8.87
2022-12-22T04:34:58.123Z,8.84
2022-12-22T04:35:58.126Z,8.91
2022-12-22T04:37:06.987Z,8.88
2022-12-22T04:37:58.124Z,8.97
2022-12-22T04:38:58.124Z,8.92
2022-12-22T04:39:58.136Z,8.92
2022-12-22T04:40:58.135Z,8.92
2022-12-22T04:41:58.144Z,8.92
2022-12-22T04:42:58.143Z,8.95
2022-12-22T04:43:58.153Z,8.92
2022-12-22T04:44:58.159Z,9.00
2022-12-22T04:45:58.233Z,8.99
2022-12-22T04:46:58.159Z,9.02
2022-12-22T04:47:58.185Z,9.02
2022-12-22T04:49:00.493Z,9.04
2022-12-22T04:49:58.177Z,9.02
2022-12-22T04:50:58.176Z,9.04
2022-12-22T04:51:58.180Z,9.02
2022-12-22T04:52:58.211Z,9.08
2022-12-22T04:53:58.194Z,8.99
2022-12-22T04:54:58.190Z,9.08
2022-12-22T04:55:58.186Z,9.02
2022-12-22T04:56:58.191Z,9.04
2022-12-22T04:57:58.194Z,9.00
2022-12-22T04:58:58.199Z,9.00
2022-12-22T04:59:58.204Z,8.97
2022-12-22T05:00:58.277Z,9.08
2022-12-22T05:01:58.332Z,8.95
2022-12-22T05:02:58.351Z,9.00
2022-12-22T05:03:58.227Z,9.03
2022-12-22T05:04:58.219Z,8.92
2022-12-22T05:05:58.237Z,9.00
2022-12-22T05:06:58.237Z,9.00
2022-12-22T05:07:58.235Z,8.97
2022-12-22T05:08:58.269Z,9.04
2022-12-22T05:09:58.253Z,9.03
2022-12-22T05:10:58.247Z,9.00
2022-12-22T05:11:58.252Z,9.00
2022-12-22T05:12:58.296Z,8.89
2022-12-22T05:14:02.155Z,9.04
2022-12-22T05:14:58.268Z,9.03
2022-12-22T05:15:58.267Z,9.06
2022-12-22T05:16:58.325Z,8.97
2022-12-22T05:17:58.280Z,9.08
2022-12-22T05:18:58.282Z,9.04
2022-12-22T05:19:58.285Z,9.13
2022-12-22T05:20:58.285Z,9.10
2022-12-22T05:21:58.289Z,9.11
2022-12-22T05:22:58.295Z,9.04
2022-12-22T05:23:58.312Z,9.06
2022-12-22T05:24:58.335Z,8.97
2022-12-22T05:25:58.305Z,9.08
2022-12-22T05:26:58.311Z,8.97
2022-12-22T05:27:58.319Z,9.02
2022-12-22T05:28:58.328Z,8.95
2022-12-22T05:29:58.330Z,9.00
2022-12-22T05:30:58.357Z,9.02
2022-12-22T05:31:58.329Z,9.00
2022-12-22T05:32:58.342Z,8.95
2022-12-22T05:33:58.338Z,8.92
2022-12-22T05:34:58.343Z,9.00
2022-12-22T05:35:58.344Z,9.03
2022-12-22T05:36:58.358Z,8.99
2022-12-22T05:37:58.362Z,9.00
2022-12-22T05:38:58.357Z,8.95
2022-12-22T05:39:58.364Z,8.94
2022-12-22T05:41:03.949Z,8.84
2022-12-22T05:41:58.373Z,8.88
2022-12-22T05:42:58.375Z,8.92
2022-12-22T05:43:58.387Z,8.95
2022-12-22T05:44:58.383Z,8.95
2022-12-22T05:45:58.420Z,9.00
2022-12-22T05:46:58.401Z,9.04
2022-12-22T05:47:58.403Z,8.99
2022-12-22T05:48:58.398Z,9.00
2022-12-22T05:49:58.419Z,8.94
2022-12-22T05:50:58.440Z,8.89
2022-12-22T05:51:58.413Z,8.92
2022-12-22T05:52:58.430Z,8.92
2022-12-22T05:53:58.432Z,8.89
2022-12-22T05:54:58.432Z,8.95
2022-12-22T05:55:58.440Z,8.88
2022-12-22T05:56:58.452Z,8.87
2022-12-22T05:57:58.437Z,8.94
2022-12-22T05:58:58.447Z,8.95
2022-12-22T05:59:58.457Z,8.94
2022-12-22T06:00:58.493Z,8.89
2022-12-22T06:01:58.525Z,8.85
2022-12-22T06:02:58.551Z,8.94
2022-12-22T06:04:00.629Z,8.97
2022-12-22T06:04:58.472Z,8.95
2022-12-22T06:05:58.491Z,8.88
2022-12-22T06:06:58.482Z,8.88
2022-12-22T06:07:58.490Z,8.89
2022-12-22T06:08:58.491Z,8.85
2022-12-22T06:09:58.489Z,8.89
2022-12-22T06:10:58.492Z,8.85
2022-12-22T06:11:58.615Z,8.87
2022-12-22T06:12:58.525Z,8.87
2022-12-22T06:13:58.503Z,8.97
2022-12-22T06:14:58.513Z,8.95
2022-12-22T06:15:58.563Z,8.88
2022-12-22T06:16:58.513Z,8.87
2022-12-22T06:17:58.518Z,8.94
2022-12-22T06:18:58.528Z,8.89
2022-12-22T06:19:58.532Z,8.85
2022-12-22T06:20:58.535Z,8.84
2022-12-22T06:21:58.539Z,8.85
2022-12-22T06:22:58.543Z,8.84
2022-12-22T06:23:58.547Z,8.82
2022-12-22T06:24:58.548Z,8.85
2022-12-22T06:25:58.570Z,8.88
2022-12-22T06:26:58.586Z,8.88
2022-12-22T06:27:58.566Z,8.89
2022-12-22T06:28:58.601Z,8.82
2022-12-22T06:29:58.576Z,8.84
2022-12-22T06:30:58.614Z,8.91
2022-12-22T06:31:58.574Z,8.87
2022-12-22T06:32:58.584Z,8.94
2022-12-22T06:33:58.583Z,8.89
2022-12-22T06:34:58.591Z,9.00
2022-12-22T06:35:59.668Z,9.02
2022-12-22T06:36:58.594Z,9.00
2022-12-22T06:37:58.598Z,8.88
2022-12-22T06:38:58.602Z,8.94
2022-12-22T06:39:58.620Z,8.94
2022-12-22T06:40:58.608Z,8.97
2022-12-22T06:41:58.613Z,9.00
2022-12-22T06:43:05.741Z,9.04
2022-12-22T06:43:58.623Z,9.04
2022-12-22T06:44:58.654Z,9.03
2022-12-22T06:45:58.715Z,8.92
2022-12-22T06:46:58.752Z,9.08
2022-12-22T06:47:58.648Z,8.97
2022-12-22T06:48:58.646Z,8.94
2022-12-22T06:49:58.651Z,8.97
2022-12-22T06:50:58.649Z,9.06
2022-12-22T06:51:58.653Z,9.11
2022-12-22T06:52:58.684Z,9.10
2022-12-22T06:53:58.662Z,9.13
2022-12-22T06:54:58.688Z,9.08
2022-12-22T06:55:58.669Z,8.95
2022-12-22T06:56:58.808Z,9.13
2022-12-22T06:57:58.676Z,9.10
2022-12-22T06:58:58.691Z,9.06
2022-12-22T06:59:58.685Z,8.99
2022-12-22T07:00:58.722Z,8.94
2022-12-22T07:01:58.800Z,8.99
2022-12-22T07:02:59.084Z,9.08
2022-12-22T07:03:58.770Z,9.08
2022-12-22T07:04:58.715Z,9.10
2022-12-22T07:05:58.717Z,9.11
2022-12-22T07:06:58.734Z,9.10
2022-12-22T07:08:05.894Z,9.11
2022-12-22T07:08:58.727Z,9.08
2022-12-22T07:09:58.733Z,9.16
2022-12-22T07:10:58.736Z,9.11
2022-12-22T07:11:58.740Z,9.10
2022-12-22T07:12:58.739Z,9.11
2022-12-22T07:13:58.751Z,9.13
2022-12-22T07:14:58.756Z,9.04
2022-12-22T07:16:00.954Z,9.13
2022-12-22T07:16:58.791Z,9.13
2022-12-22T07:17:58.760Z,9.11
2022-12-22T07:18:58.761Z,9.16
2022-12-22T07:19:58.783Z,8.97
2022-12-22T07:20:58.774Z,9.04
2022-12-22T07:21:58.777Z,8.99
2022-12-22T07:22:58.787Z,9.02
2022-12-22T07:23:58.799Z,9.08
2022-12-22T07:24:58.957Z,9.10
2022-12-22T07:25:58.797Z,9.10
2022-12-22T07:26:58.804Z,9.18
2022-12-22T07:27:58.807Z,9.10
2022-12-22T07:28:58.813Z,9.06
2022-12-22T07:29:58.816Z,9.08
2022-12-22T07:30:58.929Z,9.13
2022-12-22T07:31:58.850Z,9.11
2022-12-22T07:32:58.845Z,9.11
2022-12-22T07:33:58.831Z,9.16
2022-12-22T07:35:04.954Z,9.11
2022-12-22T07:35:58.837Z,9.13
2022-12-22T07:36:58.841Z,9.00
2022-12-22T07:37:58.841Z,9.00
2022-12-22T07:38:58.847Z,9.08
2022-12-22T07:39:58.852Z,9.08
2022-12-22T07:41:04.516Z,8.99
2022-12-22T07:41:58.859Z,8.95
2022-12-22T07:42:58.886Z,9.10
2022-12-22T07:43:58.871Z,9.08
2022-12-22T07:44:58.878Z,9.03
2022-12-22T07:45:58.883Z,9.13
2022-12-22T07:46:58.932Z,9.04
2022-12-22T07:47:58.880Z,8.97
2022-12-22T07:48:58.914Z,9.04
2022-12-22T07:49:58.894Z,9.04
2022-12-22T07:50:58.893Z,8.95
2022-12-22T07:51:58.900Z,8.94
2022-12-22T07:52:58.905Z,9.13
2022-12-22T07:53:58.910Z,9.04
2022-12-22T07:54:58.916Z,8.99
2022-12-22T07:55:58.911Z,9.10
2022-12-22T07:56:58.928Z,9.10
2022-12-22T07:57:58.929Z,9.04
2022-12-22T07:58:58.935Z,9.13
2022-12-22T07:59:58.934Z,9.06
2022-12-22T08:00:58.931Z,9.10
2022-12-22T08:01:59.124Z,9.13
2022-12-22T08:02:59.087Z,9.14
2022-12-22T08:03:58.955Z,9.14
2022-12-22T08:04:59.036Z,9.13
2022-12-22T08:05:58.961Z,9.10
2022-12-22T08:06:58.969Z,9.18
2022-12-22T08:07:58.971Z,9.13
2022-12-22T08:08:58.962Z,9.22
2022-12-22T08:09:58.976Z,9.23
2022-12-22T08:10:58.986Z,9.25
2022-12-22T08:11:58.984Z,9.22
2022-12-22T08:12:59.036Z,9.31
2022-12-22T08:14:01.527Z,9.26
2022-12-22T08:14:58.996Z,9.31
2022-12-22T08:15:59.012Z,9.26
2022-12-22T08:16:59.020Z,9.23
2022-12-22T08:17:59.006Z,9.25
2022-12-22T08:18:59.013Z,9.21
2022-12-22T08:19:59.014Z,9.25
2022-12-22T08:20:59.037Z,9.28
2022-12-22T08:21:59.035Z,9.26
2022-12-22T08:22:59.129Z,9.26
2022-12-22T08:23:59.032Z,9.22
2022-12-22T08:24:59.037Z,9.26
2022-12-22T08:25:59.038Z,9.26
2022-12-22T08:26:59.043Z,9.25
2022-12-22T08:27:59.051Z,9.28
2022-12-22T08:28:59.053Z,9.37
2022-12-22T08:29:59.073Z,9.26
2022-12-22T08:30:59.060Z,9.29
2022-12-22T08:31:59.165Z,9.31
2022-12-22T08:32:59.178Z,9.31
2022-12-22T08:33:59.077Z,9.31
2022-12-22T08:34:59.089Z,9.26
2022-12-22T08:36:05.847Z,9.26
2022-12-22T08:36:59.103Z,9.28
2022-12-22T08:37:59.083Z,9.26
2022-12-22T08:38:59.089Z,9.29
2022-12-22T08:39:59.097Z,9.26
2022-12-22T08:40:59.108Z,9.29
2022-12-22T08:41:59.107Z,9.29
2022-12-22T08:42:59.279Z,9.23
2022-12-22T08:43:59.120Z,9.28
2022-12-22T08:44:59.110Z,9.19
2022-12-22T08:45:59.129Z,9.31
2022-12-22T08:46:59.261Z,9.31
2022-12-22T08:47:59.126Z,9.29
2022-12-22T08:48:59.140Z,9.25
2022-12-22T08:49:59.129Z,9.34
2022-12-22T08:50:59.153Z,9.37
2022-12-22T08:51:59.133Z,9.36
2022-12-22T08:52:59.158Z,9.36
2022-12-22T08:54:06.950Z,9.37
2022-12-22T08:54:59.183Z,9.39
2022-12-22T08:55:59.160Z,9.39
2022-12-22T08:56:59.191Z,9.37
2022-12-22T08:57:59.162Z,9.41
2022-12-22T08:58:59.178Z,9.37
2022-12-22T08:59:59.198Z,9.43
2022-12-22T09:00:59.234Z,9.40
2022-12-22T09:01:59.308Z,9.36
2022-12-22T09:02:59.346Z,9.46
2022-12-22T09:03:59.184Z,9.47
2022-12-22T09:04:59.184Z,9.48
2022-12-22T09:05:59.200Z,9.44
2022-12-22T09:06:59.204Z,9.44
2022-12-22T09:07:59.199Z,9.47
2022-12-22T09:08:59.262Z,9.50
2022-12-22T09:09:59.222Z,9.56
2022-12-22T09:10:59.216Z,9.47
2022-12-22T09:11:59.222Z,9.58
2022-12-22T09:12:59.225Z,9.54
2022-12-22T09:13:59.232Z,9.59
2022-12-22T09:14:59.242Z,9.56
2022-12-22T09:15:59.250Z,9.48
2022-12-22T09:16:59.326Z,9.48
2022-12-22T09:17:59.241Z,9.59
2022-12-22T09:18:59.242Z,9.66
2022-12-22T09:19:59.256Z,9.68
2022-12-22T09:20:59.264Z,9.64
2022-12-22T09:21:59.268Z,9.73
2022-12-22T09:22:59.284Z,9.76
2022-12-22T09:23:59.298Z,9.76
2022-12-22T09:24:59.311Z,9.74
2022-12-22T09:25:59.294Z,9.82
2022-12-22T09:26:59.301Z,9.91
2022-12-22T09:27:59.288Z,9.86
2022-12-22T09:28:59.292Z,9.79
2022-12-22T09:29:59.299Z,9.86
2022-12-22T09:30:59.301Z,9.80
2022-12-22T09:31:59.433Z,9.83
2022-12-22T09:32:59.305Z,9.80
2022-12-22T09:33:59.317Z,9.94
2022-12-22T09:34:59.312Z,9.97
2022-12-22T09:35:59.325Z,9.89
2022-12-22T09:36:59.327Z,9.97
2022-12-22T09:37:59.344Z,9.97
2022-12-22T09:38:59.341Z,9.98
2022-12-22T09:39:59.333Z,9.94
2022-12-22T09:40:59.365Z,10.01
2022-12-22T09:41:59.393Z,10.07
2022-12-22T09:42:59.357Z,10.12
2022-12-22T09:43:59.356Z,10.10
2022-12-22T09:44:59.360Z,10.10
2022-12-22T09:45:59.412Z,10.16
2022-12-22T09:46:59.383Z,10.23
2022-12-22T09:47:59.391Z,10.15
2022-12-22T09:48:59.399Z,10.20
2022-12-22T09:49:59.400Z,10.31
2022-12-22T09:50:59.394Z,10.25
2022-12-22T09:51:59.423Z,10.42
2022-12-22T09:52:59.402Z,10.48
2022-12-22T09:53:59.417Z,10.54
2022-12-22T09:54:59.416Z,10.54
2022-12-22T09:55:59.420Z,10.57
2022-12-22T09:56:59.451Z,10.69
2022-12-22T09:57:59.441Z,10.67
2022-12-22T09:58:59.473Z,10.79
2022-12-22T09:59:59.441Z,10.81
2022-12-22T10:00:59.481Z,10.86
2022-12-22T10:01:59.571Z,10.93
2022-12-22T10:02:59.508Z,10.94
2022-12-22T10:04:00.988Z,11.02
2022-12-22T10:04:59.467Z,11.00
2022-12-22T10:05:59.465Z,11.02
2022-12-22T10:06:59.474Z,11.04
2022-12-22T10:07:59.477Z,11.14
2022-12-22T10:08:59.483Z,11.12
2022-12-22T10:09:59.496Z,11.12
2022-12-22T10:10:59.493Z,11.29
2022-12-22T10:11:59.509Z,11.23
2022-12-22T10:12:59.526Z,11.30
2022-12-22T10:13:59.521Z,11.33
2022-12-22T10:14:59.518Z,11.36
2022-12-22T10:15:59.546Z,11.37
2022-12-22T10:16:59.592Z,11.45
2022-12-22T10:17:59.539Z,11.48
2022-12-22T10:18:59.550Z,11.48
2022-12-22T10:19:59.555Z,11.45
2022-12-22T10:20:59.559Z,11.51
2022-12-22T10:21:59.558Z,11.48
2022-12-22T10:22:59.582Z,11.48
2022-12-22T10:23:59.575Z,11.51
2022-12-22T10:24:59.584Z,11.48
2022-12-22T10:26:27.611Z,11.45
2022-12-22T10:26:59.589Z,11.35
2022-12-22T10:27:59.603Z,11.40
2022-12-22T10:28:59.637Z,11.43
2022-12-22T10:29:59.607Z,11.36
2022-12-22T10:30:59.626Z,11.37
2022-12-22T10:31:59.744Z,11.25
2022-12-22T10:32:59.632Z,11.26
2022-12-22T10:33:59.640Z,11.22
2022-12-22T10:34:59.645Z,11.17
2022-12-22T10:35:59.645Z,11.25
2022-12-22T10:36:59.662Z,11.30
2022-12-22T10:37:59.868Z,11.29
2022-12-22T10:38:59.658Z,11.17
2022-12-22T10:39:59.676Z,11.30
2022-12-22T10:41:02.469Z,11.19
2022-12-22T10:41:59.684Z,11.19
2022-12-22T10:42:59.697Z,11.23
2022-12-22T10:43:59.695Z,11.07
2022-12-22T10:44:59.736Z,10.97
2022-12-22T10:45:59.802Z,11.04
2022-12-22T10:46:59.726Z,11.07
2022-12-22T10:47:59.721Z,11.00
2022-12-22T10:48:59.722Z,11.00
2022-12-22T10:50:39.221Z,10.87
2022-12-22T10:51:39.234Z,10.99
2022-12-22T10:52:39.233Z,10.97
2022-12-22T10:53:39.245Z,10.99
2022-12-22T10:54:39.252Z,10.96
2022-12-22T10:55:39.293Z,10.96
2022-12-22T10:56:39.258Z,10.92
2022-12-22T10:57:39.261Z,10.87
2022-12-22T10:58:39.265Z,10.92
2022-12-22T10:59:39.275Z,10.93
2022-12-22T11:00:39.310Z,10.93
2022-12-22T11:01:39.469Z,10.92
2022-12-22T11:02:39.561Z,10.89
2022-12-22T11:03:39.413Z,10.97
2022-12-22T11:04:39.296Z,11.00
2022-12-22T11:05:39.315Z,10.99
2022-12-22T11:06:39.323Z,11.00
2022-12-22T11:07:39.322Z,10.99
2022-12-22T11:08:39.319Z,10.96
2022-12-22T11:09:39.324Z,10.97
2022-12-22T11:10:39.330Z,10.99
2022-12-22T11:11:39.336Z,10.94
2022-12-22T11:12:39.350Z,11.02
2022-12-22T11:13:39.357Z,10.97
2022-12-22T11:14:39.359Z,11.02
2022-12-22T11:15:39.364Z,11.00
2022-12-22T11:16:39.471Z,11.02
2022-12-22T11:17:39.371Z,11.02
2022-12-22T11:18:39.372Z,10.97
2022-12-22T11:19:39.380Z,10.99
2022-12-22T11:20:39.401Z,11.07
2022-12-22T11:21:39.397Z,10.94
2022-12-22T11:22:39.404Z,10.97
2022-12-22T11:23:39.407Z,11.02
2022-12-22T11:24:39.420Z,10.93
2022-12-22T11:25:39.428Z,10.99
2022-12-22T11:26:39.425Z,10.97
2022-12-22T11:27:45.545Z,10.93
2022-12-22T11:28:39.436Z,11.00
2022-12-22T11:29:39.445Z,11.02
2022-12-22T11:30:39.516Z,11.02
2022-12-22T11:31:39.453Z,10.96
2022-12-22T11:32:39.492Z,10.94
2022-12-22T11:33:39.462Z,10.96
2022-12-22T11:34:39.463Z,10.96
2022-12-22T11:35:39.466Z,10.96
2022-12-22T11:36:39.480Z,11.11
2022-12-22T11:37:39.486Z,11.04
2022-12-22T11:38:39.505Z,11.07
2022-12-22T11:39:39.503Z,11.02
2022-12-22T11:40:39.522Z,11.00
2022-12-22T11:41:39.517Z,11.07
2022-12-22T11:42:39.511Z,11.07
2022-12-22T11:43:39.519Z,11.05
2022-12-22T11:44:39.563Z,11.07
2022-12-22T11:45:43.158Z,11.14
2022-12-22T11:46:39.656Z,11.10
2022-12-22T11:47:39.536Z,11.18
2022-12-22T11:48:39.567Z,11.15
2022-12-22T11:49:39.544Z,11.14
2022-12-22T11:50:59.671Z,11.07
2022-12-22T11:51:39.600Z,11.14
2022-12-22T11:52:39.563Z,11.18
2022-12-22T11:53:39.583Z,11.23
2022-12-22T11:54:39.581Z,11.26
2022-12-22T11:55:39.581Z,11.25
2022-12-22T11:56:39.600Z,11.32
2022-12-22T11:57:39.592Z,11.33
2022-12-22T11:58:39.599Z,11.32
2022-12-22T11:59:39.635Z,11.35
2022-12-22T12:01:12.140Z,11.29
2022-12-22T12:01:39.699Z,11.33
2022-12-22T12:02:39.723Z,11.33
2022-12-22T12:03:39.752Z,11.32
2022-12-22T12:04:39.671Z,11.35
2022-12-22T12:05:39.635Z,11.37
2022-12-22T12:06:39.639Z,11.32
2022-12-22T12:07:39.648Z,11.41
2022-12-22T12:08:39.657Z,11.40
2022-12-22T12:09:39.661Z,11.36
2022-12-22T12:10:39.673Z,11.32
2022-12-22T12:11:39.675Z,11.37
2022-12-22T12:12:39.669Z,11.40
2022-12-22T12:13:39.687Z,11.33
2022-12-22T12:14:39.690Z,11.35
2022-12-22T12:15:39.803Z,11.33
2022-12-22T12:16:39.783Z,11.36
2022-12-22T12:17:39.705Z,11.33
2022-12-22T12:18:39.713Z,11.35
2022-12-22T12:19:39.718Z,11.36
2022-12-22T12:20:39.743Z,11.40
2022-12-22T12:21:39.722Z,11.33
2022-12-22T12:22:39.737Z,11.37
2022-12-22T12:23:39.740Z,11.32
2022-12-22T12:24:39.747Z,11.41
2022-12-22T12:25:39.742Z,11.36
2022-12-22T12:26:39.756Z,11.35
2022-12-22T12:27:39.764Z,11.32
2022-12-22T12:28:39.762Z,11.40
2022-12-22T12:29:39.773Z,11.33
2022-12-22T12:30:40.107Z,11.41
2022-12-22T12:31:39.919Z,11.43
2022-12-22T12:32:39.793Z,11.35
2022-12-22T12:33:39.789Z,11.41
2022-12-22T12:34:39.802Z,11.41
2022-12-22T12:35:39.804Z,11.41
2022-12-22T12:36:39.837Z,11.41
2022-12-22T12:37:39.822Z,11.43
2022-12-22T12:39:07.023Z,11.40
2022-12-22T12:39:39.832Z,11.33
2022-12-22T12:40:39.830Z,11.36
2022-12-22T12:41:39.845Z,11.41
2022-12-22T12:42:39.841Z,11.40
2022-12-22T12:43:39.856Z,11.36
2022-12-22T12:44:39.853Z,11.37
2022-12-22T12:45:39.865Z,11.33
2022-12-22T12:46:39.889Z,11.32
2022-12-22T12:47:39.870Z,11.43
2022-12-22T12:48:40.351Z,11.41
2022-12-22T12:49:39.880Z,11.37
2022-12-22T12:50:39.889Z,11.32
2022-12-22T12:51:39.895Z,11.36
2022-12-22T12:52:40.066Z,11.40
2022-12-22T12:53:39.902Z,11.40
2022-12-22T12:54:39.907Z,11.36
2022-12-22T12:55:39.922Z,11.36
2022-12-22T12:56:39.919Z,11.43
2022-12-22T12:57:39.926Z,11.44
2022-12-22T12:58:39.986Z,11.37
2022-12-22T12:59:39.958Z,11.41
2022-12-22T13:00:47.224Z,11.35
2022-12-22T13:01:40.227Z,11.37
2022-12-22T13:02:40.126Z,11.41
2022-12-22T13:04:40.054Z,11.37
2022-12-22T13:05:39.982Z,11.32
2022-12-22T13:06:45.067Z,11.33
2022-12-22T13:07:39.990Z,11.35
2022-12-22T13:08:40.015Z,11.36
2022-12-22T13:09:50.589Z,11.36
2022-12-22T13:10:40.010Z,11.36
2022-12-22T13:12:40.083Z,11.40
2022-12-22T13:13:40.050Z,11.35
2022-12-22T13:14:40.024Z,11.29